createdAt,value
2018-04-24T00:01:56.433Z,1.53
2018-04-24T00:04:24.784Z,1.70
2018-04-24T00:06:52.354Z,1.77
2018-04-24T00:09:19.986Z,2.13
2018-04-24T00:11:47.674Z,1.50
2018-04-24T00:14:15.396Z,1.67
2018-04-24T00:16:43.017Z,1.90
2018-04-24T00:19:10.705Z,1.60
2018-04-24T00:21:39.273Z,1.67
2018-04-24T00:24:07.139Z,1.67
2018-04-24T00:26:34.817Z,2.50
2018-04-24T00:29:02.437Z,1.50
2018-04-24T00:31:30.049Z,1.53
2018-04-24T00:33:57.663Z,1.70
2018-04-24T00:36:25.401Z,1.80
2018-04-24T00:38:52.897Z,1.70
2018-04-24T00:41:21.131Z,2.57
2018-04-24T00:43:48.761Z,1.67
2018-04-24T00:46:16.372Z,1.67
2018-04-24T00:48:44.040Z,1.60
2018-04-24T00:51:11.644Z,1.53
2018-04-24T00:53:40.116Z,1.67
2018-04-24T00:56:07.734Z,1.60
2018-04-24T00:58:35.351Z,1.57
2018-04-24T01:01:02.963Z,1.53
2018-04-24T01:03:30.566Z,1.40
2018-04-24T01:05:58.213Z,2.00
2018-04-24T01:08:25.848Z,1.87
2018-04-24T01:10:53.450Z,1.40
2018-04-24T01:13:21.153Z,1.50
2018-04-24T01:15:49.481Z,1.50
2018-04-24T01:18:17.086Z,1.60
2018-04-24T01:20:44.648Z,1.60
2018-04-24T01:23:12.448Z,1.87
2018-04-24T01:25:40.076Z,1.60
2018-04-24T01:28:07.652Z,1.57
2018-04-24T01:30:35.305Z,1.50
2018-04-24T01:33:02.907Z,1.93
2018-04-24T01:35:30.580Z,1.13
2018-04-24T01:37:58.252Z,1.60
2018-04-24T01:40:25.875Z,1.57
2018-04-24T01:42:53.474Z,1.90
2018-04-24T01:45:22.080Z,2.13
2018-04-24T01:47:49.595Z,1.50
2018-04-24T01:50:17.179Z,1.47
2018-04-24T01:52:44.794Z,1.90
2018-04-24T01:55:12.367Z,1.73
2018-04-24T01:57:40.068Z,1.53
2018-04-24T02:00:08.464Z,1.77
2018-04-24T02:02:36.153Z,1.50
2018-04-24T02:05:03.742Z,1.60
2018-04-24T02:07:31.425Z,1.70
2018-04-24T02:09:59.566Z,1.93
2018-04-24T02:12:27.118Z,1.60
2018-04-24T02:14:54.696Z,1.63
2018-04-24T02:17:23.862Z,1.70
2018-04-24T02:19:51.638Z,1.60
2018-04-24T02:22:19.298Z,1.73
2018-04-24T02:24:46.923Z,1.70
2018-04-24T02:27:14.555Z,1.90
2018-04-24T02:29:42.174Z,1.60
2018-04-24T02:32:09.808Z,2.17
2018-04-24T02:34:37.397Z,1.60
2018-04-24T02:37:04.932Z,1.70
2018-04-24T02:39:32.647Z,1.50
2018-04-24T02:42:00.196Z,1.40
2018-04-24T02:44:27.734Z,1.73
2018-04-24T02:46:55.398Z,1.40
2018-04-24T02:49:23.062Z,1.40
2018-04-24T02:51:50.709Z,1.43
2018-04-24T02:54:18.265Z,2.07
2018-04-24T02:56:46.143Z,1.63
2018-04-24T02:59:13.716Z,2.10
2018-04-24T03:01:41.928Z,2.07
2018-04-24T03:04:09.521Z,2.40
2018-04-24T03:06:37.132Z,1.73
2018-04-24T03:09:05.648Z,1.97
2018-04-24T03:11:33.406Z,1.70
2018-04-24T03:14:01.056Z,1.47
2018-04-24T03:16:28.645Z,1.50
2018-04-24T03:18:57.058Z,1.63
2018-04-24T03:21:31.505Z,2.03
2018-04-24T03:24:01.920Z,1.50
2018-04-24T03:26:32.844Z,1.40
2018-04-24T03:29:03.907Z,1.40
2018-04-24T03:31:32.995Z,1.37
2018-04-24T03:34:03.712Z,1.40
2018-04-24T03:36:36.683Z,1.50
2018-04-24T03:39:07.317Z,1.77
2018-04-24T03:41:38.052Z,1.60
2018-04-24T03:44:11.955Z,2.10
2018-04-24T03:46:43.090Z,1.93
2018-04-24T03:49:12.669Z,1.40
2018-04-24T03:51:47.523Z,1.50
2018-04-24T03:54:18.315Z,2.20
2018-04-24T03:56:46.474Z,1.33
2018-04-24T03:59:16.469Z,1.67
2018-04-24T04:01:47.525Z,1.50
2018-04-24T04:04:18.741Z,1.30
2018-04-24T04:06:47.516Z,1.93
2018-04-24T04:09:18.764Z,1.70
2018-04-24T04:11:48.901Z,2.00
2018-04-24T04:14:18.762Z,1.90
2018-04-24T04:16:49.576Z,2.63
2018-04-24T04:19:29.354Z,1.40
2018-04-24T04:22:08.878Z,1.87
2018-04-24T04:24:54.293Z,1.40
2018-04-24T04:27:25.224Z,1.63
2018-04-24T04:32:35.322Z,2.07
2018-04-24T04:35:06.372Z,2.00
2018-04-24T04:37:38.463Z,10.90
2018-04-24T04:40:07.166Z,4.60
2018-04-24T04:42:38.254Z,4.27
2018-04-24T04:45:05.921Z,6.83
2018-04-24T04:47:33.441Z,4.00
2018-04-24T04:50:01.072Z,4.63
2018-04-24T04:52:29.459Z,3.67
2018-04-24T04:54:56.945Z,9.30
2018-04-24T04:57:24.453Z,12.27
2018-04-24T04:59:51.931Z,6.17
2018-04-24T05:04:54.541Z,8.50
2018-04-24T05:07:22.030Z,8.13
2018-04-24T05:09:49.496Z,9.40
2018-04-24T05:12:16.983Z,14.50
2018-04-24T05:14:45.229Z,9.27
2018-04-24T05:17:12.722Z,7.00
2018-04-24T05:19:40.956Z,8.03
2018-04-24T05:22:08.493Z,7.27
2018-04-24T05:24:35.980Z,8.87
2018-04-24T05:27:04.139Z,7.43
2018-04-24T05:29:31.624Z,9.13
2018-04-24T05:31:59.109Z,9.17
2018-04-24T05:34:27.025Z,10.53
2018-04-24T05:36:54.508Z,10.53
2018-04-24T05:39:23.678Z,7.27
2018-04-24T05:41:51.238Z,6.87
2018-04-24T05:44:18.741Z,9.77
2018-04-24T05:46:46.384Z,5.70
2018-04-24T05:49:14.646Z,10.47
2018-04-24T05:51:42.133Z,8.23
2018-04-24T05:54:10.387Z,5.47
2018-04-24T05:56:37.929Z,9.53
2018-04-24T05:59:05.399Z,6.07
2018-04-24T06:01:32.865Z,6.10
2018-04-24T06:04:01.035Z,7.87
2018-04-24T06:06:28.597Z,11.67
2018-04-24T06:08:56.833Z,3.53
2018-04-24T06:11:24.293Z,5.60
2018-04-24T06:13:51.830Z,9.03
2018-04-24T06:16:19.345Z,6.53
2018-04-24T06:18:47.688Z,10.57
2018-04-24T06:21:15.187Z,11.37
2018-04-24T06:23:43.460Z,7.03
2018-04-24T06:26:11.697Z,8.43
2018-04-24T06:28:39.229Z,9.70
2018-04-24T06:31:07.448Z,8.30
2018-04-24T06:33:34.933Z,6.87
2018-04-24T06:36:02.467Z,4.70
2018-04-24T06:38:29.928Z,6.67
2018-04-24T06:40:58.834Z,13.57
2018-04-24T06:43:27.064Z,9.33
2018-04-24T06:45:54.568Z,7.50
2018-04-24T06:48:22.816Z,5.83
2018-04-24T06:50:50.397Z,7.27
2018-04-24T06:53:18.012Z,7.73
2018-04-24T06:55:45.501Z,7.17
2018-04-24T06:58:13.751Z,15.57
2018-04-24T07:00:41.318Z,7.37
2018-04-24T07:03:08.712Z,8.13
2018-04-24T07:05:37.136Z,7.03
2018-04-24T07:08:04.697Z,7.67
2018-04-24T07:10:32.256Z,6.60
2018-04-24T07:12:59.753Z,3.77
2018-04-24T07:15:28.017Z,6.13
2018-04-24T07:17:56.264Z,6.93
2018-04-24T07:20:23.751Z,5.03
2018-04-24T07:22:51.683Z,3.57
2018-04-24T07:25:19.161Z,4.83
2018-04-24T07:27:46.634Z,7.27
2018-04-24T07:30:14.926Z,5.37
2018-04-24T07:32:42.410Z,4.77
2018-04-24T07:35:09.918Z,6.60
2018-04-24T07:37:37.501Z,6.13
2018-04-24T07:40:06.702Z,7.43
2018-04-24T07:42:34.198Z,4.73
2018-04-24T07:45:01.703Z,4.30
2018-04-24T07:47:29.981Z,3.77
2018-04-24T07:49:58.226Z,6.73
2018-04-24T07:52:25.750Z,6.27
2018-04-24T07:54:53.240Z,3.93
2018-04-24T07:57:20.807Z,4.67
2018-04-24T07:59:48.281Z,5.63
2018-04-24T08:02:16.557Z,5.57
2018-04-24T08:04:45.559Z,5.20
2018-04-24T08:07:13.804Z,3.87
2018-04-24T08:09:41.288Z,6.27
2018-04-24T08:12:09.555Z,7.33
2018-04-24T08:14:37.810Z,4.67
2018-04-24T08:17:05.923Z,4.73
2018-04-24T08:19:33.407Z,4.97
2018-04-24T08:22:01.489Z,5.27
2018-04-24T08:24:28.975Z,5.13
2018-04-24T08:26:56.464Z,4.03
2018-04-24T08:29:23.954Z,4.23
2018-04-24T08:31:51.454Z,7.70
2018-04-24T08:34:18.946Z,4.57
2018-04-24T08:36:47.361Z,5.03
2018-04-24T08:39:14.935Z,5.50
2018-04-24T08:41:42.433Z,4.60
2018-04-24T08:44:09.925Z,4.13
2018-04-24T08:46:37.412Z,6.90
2018-04-24T08:49:04.903Z,2.97
2018-04-24T08:51:35.109Z,4.70
2018-04-24T09:14:15.901Z,2.70
2018-04-24T09:16:44.169Z,5.13
2018-04-24T09:19:11.663Z,4.33
2018-04-24T09:21:39.159Z,4.23
2018-04-24T09:24:06.649Z,3.10
2018-04-24T09:26:34.955Z,4.30
2018-04-24T09:29:02.544Z,4.00
2018-04-24T09:31:35.794Z,3.13
2018-04-24T09:34:03.285Z,3.80
2018-04-24T09:36:30.815Z,4.37
2018-04-24T09:38:58.382Z,5.57
2018-04-24T09:41:25.850Z,2.90
2018-04-24T09:43:53.412Z,3.20
2018-04-24T09:46:20.833Z,3.50
2018-04-24T09:48:49.085Z,3.23
2018-04-24T09:51:16.628Z,4.33
2018-04-24T09:53:44.073Z,4.63
2018-04-24T09:56:11.572Z,4.23
2018-04-24T09:58:39.848Z,3.00
2018-04-24T10:01:08.089Z,4.13
2018-04-24T10:03:35.593Z,5.20
2018-04-24T10:06:03.103Z,4.83
2018-04-24T10:08:30.588Z,4.33
2018-04-24T10:10:58.845Z,7.50
2018-04-24T10:13:26.451Z,4.23
2018-04-24T10:15:53.857Z,4.30
2018-04-24T10:18:21.373Z,5.03
2018-04-24T10:20:48.862Z,4.93
2018-04-24T10:23:16.362Z,3.43
2018-04-24T10:25:45.398Z,2.10
2018-04-24T10:28:12.884Z,3.43
2018-04-24T10:30:40.365Z,3.53
2018-04-24T10:33:08.634Z,4.73
2018-04-24T10:35:37.766Z,3.37
2018-04-24T10:38:06.024Z,5.60
2018-04-24T10:40:33.546Z,6.33
2018-04-24T10:43:01.041Z,2.93
2018-04-24T10:45:28.530Z,4.27
2018-04-24T10:47:56.019Z,3.33
2018-04-24T10:50:23.513Z,3.83
2018-04-24T10:52:51.009Z,2.80
2018-04-24T10:55:18.496Z,3.10
2018-04-24T10:57:46.000Z,4.37
2018-04-24T11:00:13.477Z,2.23
2018-04-24T11:02:40.977Z,4.10
2018-04-24T11:05:09.263Z,2.97
2018-04-24T11:07:37.509Z,3.30
2018-04-24T11:10:04.992Z,10.03
2018-04-24T11:12:33.236Z,5.33
2018-04-24T11:15:00.760Z,10.27
2018-04-24T11:17:28.827Z,8.53
2018-04-24T11:19:56.925Z,12.33
2018-04-24T11:22:24.451Z,5.87
2018-04-24T11:24:51.960Z,6.37
2018-04-24T11:27:19.463Z,6.77
2018-04-24T11:29:46.961Z,7.73
2018-04-24T11:32:14.437Z,7.13
2018-04-24T11:34:42.458Z,10.60
2018-04-24T11:37:11.020Z,8.47
2018-04-24T11:39:38.505Z,6.37
2018-04-24T11:42:05.996Z,10.67
2018-04-24T11:44:34.092Z,8.93
2018-04-24T11:47:01.680Z,7.90
2018-04-24T11:49:29.283Z,10.17
2018-04-24T11:51:56.801Z,9.83
2018-04-24T11:54:24.492Z,8.83
2018-04-24T11:56:52.012Z,10.83
2018-04-24T11:59:19.638Z,10.53
2018-04-24T12:01:47.212Z,11.10
2018-04-24T12:04:16.177Z,10.07
2018-04-24T12:06:43.726Z,8.07
2018-04-24T12:09:11.209Z,12.20
2018-04-24T12:11:39.504Z,9.13
2018-04-24T12:14:07.045Z,7.03
2018-04-24T12:16:35.942Z,7.83
2018-04-24T12:19:04.177Z,8.07
2018-04-24T12:21:31.672Z,6.77
2018-04-24T12:23:59.194Z,8.43
2018-04-24T12:26:26.685Z,11.67
2018-04-24T12:28:54.945Z,7.63
2018-04-24T12:31:22.428Z,7.03
2018-04-24T12:33:50.685Z,10.10
2018-04-24T12:36:18.946Z,7.23
2018-04-24T12:38:46.492Z,11.87
2018-04-24T12:41:13.930Z,8.13
2018-04-24T12:43:41.417Z,8.17
2018-04-24T12:46:08.894Z,8.97
2018-04-24T12:48:37.174Z,10.33
2018-04-24T12:51:06.025Z,8.10
2018-04-24T12:53:33.514Z,7.60
2018-04-24T12:56:01.762Z,6.03
2018-04-24T12:58:29.269Z,10.83
2018-04-24T13:00:56.762Z,11.40
2018-04-24T13:03:24.249Z,8.37
2018-04-24T13:05:51.821Z,9.07
2018-04-24T13:08:20.074Z,8.50
2018-04-24T13:10:48.165Z,9.30
2018-04-24T13:13:15.669Z,8.70
2018-04-24T13:15:43.174Z,11.73
2018-04-24T13:18:10.672Z,9.77
2018-04-24T13:20:38.157Z,10.40
2018-04-24T13:23:05.623Z,8.83
2018-04-24T13:25:33.207Z,9.67
2018-04-24T13:28:00.666Z,8.53
2018-04-24T13:30:28.925Z,9.53
2018-04-24T13:32:56.466Z,9.60
2018-04-24T13:35:24.442Z,7.87
2018-04-24T13:37:51.989Z,5.73
2018-04-24T13:40:19.497Z,11.90
2018-04-24T13:42:47.753Z,7.93
2018-04-24T13:45:15.225Z,7.53
2018-04-24T13:47:43.498Z,7.63
2018-04-24T13:50:11.813Z,8.37
2018-04-24T13:52:39.332Z,9.30
2018-04-24T13:55:07.583Z,9.43
2018-04-24T13:57:35.096Z,9.47
2018-04-24T14:00:02.595Z,4.57
2018-04-24T14:02:30.083Z,5.90
2018-04-24T14:04:58.808Z,5.07
2018-04-24T14:07:26.332Z,6.10
2018-04-24T14:09:54.604Z,6.13
2018-04-24T14:12:22.887Z,10.60
2018-04-24T14:14:50.368Z,8.53
2018-04-24T14:17:17.908Z,7.47
2018-04-24T14:19:45.411Z,7.47
2018-04-24T14:22:13.712Z,6.57
2018-04-24T14:24:41.971Z,6.83
2018-04-24T14:27:09.481Z,3.87
2018-04-24T14:29:36.976Z,7.30
2018-04-24T14:32:04.506Z,6.77
2018-04-24T14:34:31.994Z,5.70
2018-04-24T14:36:59.508Z,4.67
2018-04-24T14:39:27.725Z,6.33
2018-04-24T14:41:55.210Z,7.10
2018-04-24T14:44:23.467Z,5.97
2018-04-24T14:46:51.033Z,5.27
2018-04-24T14:49:18.544Z,5.03
2018-04-24T14:51:46.129Z,4.80
2018-04-24T14:54:13.674Z,4.90
2018-04-24T14:56:41.286Z,4.90
2018-04-24T14:59:09.566Z,3.23
2018-04-24T15:01:37.821Z,5.00
2018-04-24T15:04:05.359Z,5.87
2018-04-24T15:06:42.638Z,5.20
2018-04-24T15:09:10.147Z,6.10
2018-04-24T15:11:38.381Z,4.90
2018-04-24T15:14:05.869Z,6.50
2018-04-24T15:16:34.117Z,3.07
2018-04-24T15:19:01.605Z,6.07
2018-04-24T15:21:29.884Z,6.00
2018-04-24T15:23:58.853Z,4.67
2018-04-24T15:26:26.337Z,4.90
2018-04-24T15:28:54.592Z,5.93
2018-04-24T15:34:34.836Z,6.30
2018-04-24T15:37:02.340Z,6.53
2018-04-24T15:39:30.614Z,7.10
2018-04-24T15:41:58.157Z,4.63
2018-04-24T15:44:25.646Z,5.93
2018-04-24T15:46:53.125Z,3.77
2018-04-24T15:49:20.721Z,5.30
2018-04-24T15:51:48.127Z,5.17
2018-04-24T15:54:15.641Z,4.87
2018-04-24T15:56:43.911Z,5.17
2018-04-24T15:59:11.476Z,4.97
2018-04-24T16:01:38.976Z,4.03
2018-04-24T16:04:06.479Z,5.03
2018-04-24T16:06:33.995Z,6.60
2018-04-24T16:09:02.254Z,4.33
2018-04-24T16:11:29.748Z,7.37
2018-04-24T16:13:57.244Z,6.33
2018-04-24T16:16:25.503Z,4.90
2018-04-24T16:18:52.992Z,5.83
2018-04-24T16:21:20.509Z,4.13
2018-04-24T16:23:47.996Z,3.87
2018-04-24T16:26:16.311Z,4.30
2018-04-24T16:28:43.851Z,4.27
2018-04-24T16:31:11.390Z,4.70
2018-04-24T16:33:39.664Z,3.97
2018-04-24T16:36:07.948Z,5.63
2018-04-24T16:38:36.218Z,3.53
2018-04-24T16:41:04.705Z,4.83
2018-04-24T16:43:32.243Z,3.97
2018-04-24T16:46:01.245Z,4.07
2018-04-24T16:48:29.517Z,4.27
2018-04-24T16:50:57.805Z,3.63
2018-04-24T16:53:26.072Z,3.30
2018-04-24T16:55:54.335Z,3.53
2018-04-24T16:58:21.817Z,3.87
2018-04-24T17:00:50.051Z,4.97
2018-04-24T17:03:17.583Z,4.03
2018-04-24T17:05:45.087Z,4.80
2018-04-24T17:08:13.370Z,3.93
2018-04-24T17:10:42.782Z,6.57
2018-04-24T17:13:10.282Z,5.97
2018-04-24T17:15:37.767Z,3.87
2018-04-24T17:18:05.340Z,4.23
2018-04-24T17:20:33.745Z,6.30
2018-04-24T17:23:01.321Z,3.90
2018-04-24T17:25:29.588Z,3.73
2018-04-24T17:27:57.069Z,4.20
2018-04-24T17:30:24.583Z,5.17
2018-04-24T17:32:52.081Z,3.20
2018-04-24T17:35:19.583Z,4.37
2018-04-24T17:37:47.857Z,3.47
2018-04-24T17:40:16.119Z,4.13
2018-04-24T17:42:44.413Z,3.23
2018-04-24T17:45:11.887Z,3.33
2018-04-24T17:47:39.394Z,3.70
2018-04-24T17:50:06.899Z,4.87
2018-04-24T17:52:35.225Z,3.13
2018-04-24T17:55:02.734Z,2.70
2018-04-24T17:57:30.270Z,3.43
2018-04-24T17:59:57.873Z,3.10
2018-04-24T18:02:25.385Z,3.63
2018-04-24T18:04:52.918Z,3.13
2018-04-24T18:07:20.404Z,4.07
2018-04-24T18:09:47.904Z,4.23
2018-04-24T18:12:15.388Z,3.03
2018-04-24T18:14:42.963Z,3.97
2018-04-24T18:17:11.146Z,3.27
2018-04-24T18:19:38.681Z,4.17
2018-04-24T18:22:06.258Z,3.73
2018-04-24T18:24:33.752Z,3.47
2018-04-24T18:27:01.331Z,3.27
2018-04-24T18:29:29.557Z,2.90
2018-04-24T18:31:58.546Z,3.90
2018-04-24T18:34:26.080Z,4.60
2018-04-24T18:36:53.585Z,4.20
2018-04-24T18:39:21.841Z,3.17
2018-04-24T18:41:49.342Z,3.23
2018-04-24T18:44:16.938Z,3.37
2018-04-24T18:46:45.145Z,3.10
2018-04-24T18:49:13.425Z,3.83
2018-04-24T18:51:40.938Z,3.80
2018-04-24T18:54:08.466Z,3.10
2018-04-24T18:56:35.999Z,4.10
2018-04-24T18:59:04.277Z,3.37
2018-04-24T19:01:32.369Z,3.90
2018-04-24T19:03:59.866Z,3.57
2018-04-24T19:06:27.819Z,4.07
2018-04-24T19:08:55.351Z,3.23
2018-04-24T19:11:22.860Z,3.67
2018-04-24T19:13:50.345Z,4.57
2018-04-24T19:16:18.626Z,3.30
2018-04-24T19:18:51.774Z,3.20
2018-04-24T19:21:19.283Z,4.17
2018-04-24T19:23:46.817Z,3.93
2018-04-24T19:26:15.082Z,3.27
2018-04-24T19:28:42.594Z,3.13
2018-04-24T19:31:15.934Z,3.33
2018-04-24T19:33:44.208Z,3.33
2018-04-24T19:36:12.477Z,4.57
2018-04-24T19:38:39.979Z,3.53
2018-04-24T19:41:13.240Z,3.27
2018-04-24T19:43:41.509Z,3.30
2018-04-24T19:46:09.795Z,4.47
2018-04-24T19:51:45.009Z,2.90
2018-04-24T19:54:12.537Z,3.23
2018-04-24T19:56:40.025Z,4.47
2018-04-24T19:59:07.519Z,2.93
2018-04-24T20:01:35.839Z,3.53
2018-04-24T20:04:03.385Z,3.63
2018-04-24T20:06:30.885Z,3.60
2018-04-24T20:08:58.381Z,3.00
2018-04-24T20:11:26.661Z,3.10
2018-04-24T20:13:54.936Z,3.40
2018-04-24T20:16:23.824Z,3.27
2018-04-24T20:18:52.070Z,3.30
2018-04-24T20:21:20.036Z,5.00
2018-04-24T20:23:47.554Z,3.23
2018-04-24T20:26:15.045Z,3.47
2018-04-24T20:28:42.554Z,3.20
2018-04-24T20:31:10.063Z,3.00
2018-04-24T20:33:37.553Z,2.90
2018-04-24T20:36:05.814Z,3.17
2018-04-24T20:38:33.375Z,3.10
2018-04-24T20:41:00.829Z,4.00
2018-04-24T20:43:28.361Z,3.30
2018-04-24T20:45:55.855Z,3.20
2018-04-24T20:48:24.140Z,3.10
2018-04-24T20:50:52.410Z,3.60
2018-04-24T20:53:20.876Z,3.20
2018-04-24T20:55:48.323Z,3.10
2018-04-24T20:58:15.865Z,3.67
2018-04-24T21:00:43.441Z,3.23
2018-04-24T21:03:10.889Z,4.03
2018-04-24T21:05:38.435Z,5.23
2018-04-24T21:08:06.769Z,3.67
2018-04-24T21:10:34.295Z,3.10
2018-04-24T21:13:01.803Z,3.13
2018-04-24T21:15:29.308Z,3.33
2018-04-24T21:17:56.790Z,3.10
2018-04-24T21:20:24.290Z,3.23
2018-04-24T21:22:51.823Z,3.30
2018-04-24T21:25:19.310Z,3.73
2018-04-24T21:27:46.845Z,4.50
2018-04-24T21:30:14.358Z,3.30
2018-04-24T21:32:42.631Z,3.17
2018-04-24T21:35:10.162Z,3.67
2018-04-24T21:37:37.625Z,3.17
2018-04-24T21:40:05.128Z,3.20
2018-04-24T21:42:33.389Z,3.40
2018-04-24T21:45:01.659Z,2.97
2018-04-24T21:47:29.928Z,4.70
2018-04-24T21:49:57.419Z,3.13
2018-04-24T21:52:24.931Z,3.20
2018-04-24T21:54:52.417Z,3.53
2018-04-24T21:57:20.801Z,3.20
2018-04-24T21:59:49.065Z,3.10
2018-04-24T22:02:17.326Z,3.77
2018-04-24T22:04:44.845Z,3.17
2018-04-24T22:07:12.332Z,3.73
2018-04-24T22:09:39.828Z,3.13
2018-04-24T22:12:07.356Z,3.20
2018-04-24T22:14:34.864Z,3.47
2018-04-24T22:17:02.334Z,3.40
2018-04-24T22:19:29.838Z,3.03
2018-04-24T22:21:58.080Z,3.10
2018-04-24T22:24:25.585Z,3.40
2018-04-24T22:26:53.836Z,3.40
2018-04-24T22:29:21.312Z,3.10
2018-04-24T22:31:49.598Z,3.80
2018-04-24T22:34:17.546Z,2.80
2018-04-24T22:36:45.824Z,3.10
2018-04-24T22:39:14.069Z,3.17
2018-04-24T22:41:41.594Z,3.00
2018-04-24T22:44:09.945Z,4.10
2018-04-24T22:46:38.189Z,3.07
2018-04-24T22:49:05.676Z,3.13
2018-04-24T22:51:33.794Z,2.93
2018-04-24T22:54:01.378Z,3.03
2018-04-24T22:56:28.883Z,3.33
2018-04-24T22:58:56.989Z,3.07
2018-04-24T23:01:24.458Z,3.10
2018-04-24T23:03:51.940Z,3.10
2018-04-24T23:06:21.643Z,3.33
2018-04-24T23:08:49.904Z,3.10
2018-04-24T23:11:29.326Z,3.30
2018-04-24T23:14:09.321Z,3.43
2018-04-24T23:16:50.176Z,3.30
2018-04-24T23:19:29.637Z,3.00
2018-04-24T23:21:56.721Z,3.33
2018-04-24T23:24:24.222Z,3.37
2018-04-24T23:26:53.199Z,3.87
2018-04-24T23:29:20.676Z,3.63
2018-04-24T23:31:48.961Z,3.10
2018-04-24T23:34:17.221Z,3.37
2018-04-24T23:36:45.467Z,3.47
2018-04-24T23:39:12.948Z,3.10
2018-04-24T23:41:40.432Z,3.17
2018-04-24T23:44:07.910Z,3.10
2018-04-24T23:46:35.991Z,3.27
2018-04-24T23:49:03.509Z,2.83
2018-04-24T23:51:31.762Z,3.10
2018-04-24T23:53:59.298Z,3.20
2018-04-24T23:56:26.872Z,3.87
2018-04-24T23:58:54.377Z,3.07
